createdAt,value
2023-05-04T00:00:35.281Z,2.20
2023-05-04T00:03:02.002Z,1.95
2023-05-04T00:05:29.836Z,1.90
2023-05-04T00:07:56.394Z,2.00
2023-05-04T00:10:23.089Z,1.73
2023-05-04T00:12:49.891Z,1.70
2023-05-04T00:15:16.450Z,1.73
2023-05-04T00:17:44.372Z,1.70
2023-05-04T00:20:12.216Z,1.63
2023-05-04T00:22:38.755Z,1.60
2023-05-04T00:25:06.300Z,1.77
2023-05-04T00:27:33.045Z,1.90
2023-05-04T00:29:59.816Z,1.77
2023-05-04T00:32:26.463Z,1.67
2023-05-04T00:34:54.464Z,1.52
2023-05-04T00:37:21.184Z,2.00
2023-05-04T00:39:47.741Z,1.60
2023-05-04T00:42:14.434Z,1.60
2023-05-04T00:44:41.095Z,2.00
2023-05-04T00:47:08.116Z,1.77
2023-05-04T00:49:35.308Z,1.80
2023-05-04T00:52:04.585Z,1.65
2023-05-04T00:54:31.931Z,1.80
2023-05-04T00:56:58.900Z,1.80
2023-05-04T00:59:25.471Z,1.40
2023-05-04T01:01:52.247Z,1.80
2023-05-04T01:04:18.960Z,1.77
2023-05-04T01:06:52.616Z,1.80
2023-05-04T01:09:31.571Z,1.80
2023-05-04T01:12:02.834Z,1.50
2023-05-04T01:14:30.865Z,1.75
2023-05-04T01:16:58.688Z,1.80
2023-05-04T01:19:25.974Z,1.80
2023-05-04T01:21:53.849Z,1.67
2023-05-04T01:24:20.581Z,1.70
2023-05-04T01:26:53.547Z,1.80
2023-05-04T01:29:27.687Z,1.70
2023-05-04T01:31:56.351Z,1.80
2023-05-04T01:34:22.915Z,1.80
2023-05-04T01:36:50.656Z,1.80
2023-05-04T01:39:18.522Z,2.00
2023-05-04T01:41:45.081Z,1.90
2023-05-04T01:44:11.670Z,1.80
2023-05-04T01:46:38.594Z,1.65
2023-05-04T01:49:05.170Z,1.73
2023-05-04T01:51:31.699Z,1.90
2023-05-04T01:53:58.234Z,1.50
2023-05-04T01:56:26.148Z,1.70
2023-05-04T01:58:52.727Z,1.70
2023-05-04T02:01:19.666Z,1.67
2023-05-04T02:03:46.326Z,1.70
2023-05-04T02:06:12.965Z,1.63
2023-05-04T02:08:39.581Z,1.60
2023-05-04T02:11:06.192Z,1.77
2023-05-04T02:13:34.455Z,1.40
2023-05-04T02:16:01.076Z,1.92
2023-05-04T02:18:27.732Z,1.40
2023-05-04T02:20:54.305Z,1.70
2023-05-04T02:23:21.005Z,1.45
2023-05-04T02:25:47.571Z,1.40
2023-05-04T02:28:14.252Z,1.60
2023-05-04T02:30:43.111Z,1.65
2023-05-04T02:33:09.747Z,1.93
2023-05-04T02:35:36.554Z,1.75
2023-05-04T02:38:03.246Z,1.40
2023-05-04T02:40:29.830Z,1.50
2023-05-04T02:42:56.432Z,1.58
2023-05-04T02:45:23.582Z,1.60
2023-05-04T02:47:51.611Z,1.45
2023-05-04T02:50:18.735Z,1.50
2023-05-04T02:52:45.441Z,1.60
2023-05-04T02:55:12.151Z,1.38
2023-05-04T02:57:38.703Z,1.63
2023-05-04T03:00:06.837Z,1.50
2023-05-04T03:02:33.790Z,1.58
2023-05-04T03:05:01.788Z,1.77
2023-05-04T03:07:28.559Z,1.73
2023-05-04T03:09:55.148Z,1.43
2023-05-04T03:12:21.736Z,1.42
2023-05-04T03:14:48.303Z,1.60
2023-05-04T03:17:14.819Z,1.65
2023-05-04T03:19:41.676Z,1.50
2023-05-04T03:22:09.657Z,1.50
2023-05-04T03:24:36.222Z,1.52
2023-05-04T03:27:02.831Z,1.60
2023-05-04T03:29:29.385Z,1.73
2023-05-04T03:31:56.071Z,1.50
2023-05-04T03:34:22.679Z,1.60
2023-05-04T03:36:49.230Z,1.92
2023-05-04T03:39:17.201Z,1.83
2023-05-04T03:41:44.091Z,1.08
2023-05-04T03:44:10.866Z,1.70
2023-05-04T03:46:37.635Z,2.00
2023-05-04T03:49:04.309Z,1.50
2023-05-04T03:51:31.132Z,1.52
2023-05-04T03:53:57.702Z,1.67
2023-05-04T03:56:25.810Z,1.33
2023-05-04T03:58:52.357Z,1.83
2023-05-04T04:01:18.934Z,1.33
2023-05-04T04:03:45.774Z,1.50
2023-05-04T04:06:12.324Z,1.55
2023-05-04T04:08:39.242Z,1.52
2023-05-04T04:11:05.872Z,1.40
2023-05-04T04:13:33.827Z,1.60
2023-05-04T04:16:00.382Z,1.60
2023-05-04T04:18:27.129Z,1.52
2023-05-04T04:20:53.669Z,1.60
2023-05-04T04:23:20.330Z,1.43
2023-05-04T04:25:46.874Z,1.30
2023-05-04T04:28:13.571Z,1.70
2023-05-04T04:30:41.533Z,1.30
2023-05-04T04:33:08.210Z,1.50
2023-05-04T04:35:34.801Z,1.57
2023-05-04T04:38:03.770Z,1.55
2023-05-04T04:40:30.605Z,1.50
2023-05-04T04:42:57.369Z,1.63
2023-05-04T04:45:23.934Z,1.60
2023-05-04T04:47:51.960Z,1.60
2023-05-04T04:50:18.805Z,1.70
2023-05-04T04:52:45.512Z,1.70
2023-05-04T04:55:16.305Z,1.50
2023-05-04T04:57:42.864Z,1.58
2023-05-04T05:00:10.504Z,1.40
2023-05-04T05:02:37.353Z,1.20
2023-05-04T05:05:06.253Z,1.75
2023-05-04T05:07:33.008Z,1.83
2023-05-04T05:09:59.601Z,1.40
2023-05-04T05:12:26.295Z,1.70
2023-05-04T05:14:52.804Z,1.50
2023-05-04T05:17:20.053Z,1.77
2023-05-04T05:19:46.799Z,1.48
2023-05-04T05:22:14.830Z,1.60
2023-05-04T05:24:41.370Z,1.60
2023-05-04T05:27:07.962Z,1.48
2023-05-04T05:29:34.523Z,1.70
2023-05-04T05:32:01.223Z,1.67
2023-05-04T05:34:27.763Z,1.80
2023-05-04T05:36:54.462Z,2.17
2023-05-04T05:39:22.383Z,2.00
2023-05-04T05:41:48.918Z,1.70
2023-05-04T05:44:33.456Z,1.80
2023-05-04T05:47:00.172Z,1.90
2023-05-04T05:49:26.750Z,1.90
2023-05-04T05:51:53.334Z,1.70
2023-05-04T05:54:21.939Z,2.00
2023-05-04T05:56:48.645Z,2.00
2023-05-04T05:59:15.334Z,1.85
2023-05-04T06:01:42.351Z,2.10
2023-05-04T06:04:10.552Z,2.13
2023-05-04T06:06:37.140Z,1.60
2023-05-04T06:09:04.002Z,1.90
2023-05-04T06:11:32.049Z,1.80
2023-05-04T06:13:58.967Z,2.30
2023-05-04T06:16:25.553Z,2.35
2023-05-04T06:18:52.194Z,1.92
2023-05-04T06:21:18.782Z,2.30
2023-05-04T06:23:45.351Z,2.00
2023-05-04T06:26:11.910Z,2.10
2023-05-04T06:28:39.996Z,2.35
2023-05-04T06:31:06.582Z,2.33
2023-05-04T06:33:33.288Z,2.40
2023-05-04T06:35:59.845Z,2.13
2023-05-04T06:38:26.432Z,2.00
2023-05-04T06:40:53.318Z,1.95
2023-05-04T06:43:19.911Z,1.92
2023-05-04T06:45:48.182Z,2.22
2023-05-04T06:48:14.768Z,2.13
2023-05-04T06:50:41.338Z,2.90
2023-05-04T06:53:09.785Z,2.33
2023-05-04T06:55:36.824Z,2.53
2023-05-04T06:58:03.835Z,2.78
2023-05-04T07:00:30.986Z,2.53
2023-05-04T07:02:58.935Z,2.60
2023-05-04T07:05:25.991Z,2.67
2023-05-04T07:07:52.580Z,2.83
2023-05-04T07:10:19.152Z,2.63
2023-05-04T07:12:45.757Z,2.75
2023-05-04T07:15:12.780Z,2.60
2023-05-04T07:17:39.608Z,2.15
2023-05-04T07:20:08.697Z,2.40
2023-05-04T07:22:35.318Z,2.20
2023-05-04T07:25:02.188Z,2.35
2023-05-04T07:27:39.275Z,2.57
2023-05-04T07:30:07.381Z,2.50
2023-05-04T07:32:34.000Z,2.38
2023-05-04T07:35:00.641Z,2.70
2023-05-04T07:37:28.637Z,2.05
2023-05-04T07:39:55.268Z,2.60
2023-05-04T07:42:21.828Z,2.38
2023-05-04T07:44:48.439Z,2.15
2023-05-04T07:47:15.033Z,2.30
2023-05-04T07:49:41.609Z,2.20
2023-05-04T07:52:08.151Z,2.37
2023-05-04T07:54:36.123Z,2.05
2023-05-04T07:57:03.092Z,2.17
2023-05-04T07:59:29.763Z,2.22
2023-05-04T08:01:56.379Z,2.20
2023-05-04T08:04:23.480Z,2.10
2023-05-04T08:06:50.107Z,2.85
2023-05-04T08:09:16.699Z,2.25
2023-05-04T08:11:45.590Z,2.38
2023-05-04T08:14:12.309Z,2.30
2023-05-04T08:16:38.874Z,2.57
2023-05-04T08:19:05.640Z,2.40
2023-05-04T08:21:32.312Z,2.97
2023-05-04T08:23:58.964Z,2.63
2023-05-04T08:26:25.633Z,2.90
2023-05-04T08:28:53.618Z,2.50
2023-05-04T08:31:20.212Z,2.70
2023-05-04T08:33:46.883Z,2.70
2023-05-04T08:36:13.477Z,3.03
2023-05-04T08:38:40.068Z,3.00
2023-05-04T08:41:07.262Z,2.73
2023-05-04T08:43:35.395Z,3.10
2023-05-04T08:46:03.672Z,2.50
2023-05-04T08:48:32.173Z,3.40
2023-05-04T08:50:59.038Z,3.20
2023-05-04T08:53:27.577Z,3.10
2023-05-04T08:55:55.885Z,2.90
2023-05-04T08:58:26.470Z,3.35
2023-05-04T09:00:53.392Z,3.20
2023-05-04T09:03:21.967Z,2.90
2023-05-04T09:05:49.799Z,3.17
2023-05-04T09:08:17.629Z,3.13
2023-05-04T09:10:44.164Z,3.58
2023-05-04T09:13:10.789Z,3.25
2023-05-04T09:15:37.831Z,3.22
2023-05-04T09:18:05.852Z,3.77
2023-05-04T09:20:46.310Z,2.95
2023-05-04T09:23:13.868Z,3.33
2023-05-04T09:25:47.593Z,3.20
2023-05-04T09:28:14.948Z,3.30
2023-05-04T09:30:41.605Z,3.57
2023-05-04T09:33:08.922Z,2.88
2023-05-04T09:35:40.828Z,2.70
2023-05-04T09:38:07.505Z,3.47
2023-05-04T09:40:35.958Z,3.30
2023-05-04T09:43:03.059Z,3.47
2023-05-04T09:45:38.918Z,3.38
2023-05-04T09:48:15.681Z,3.40
2023-05-04T09:50:50.824Z,3.35
2023-05-04T09:53:20.695Z,3.13
2023-05-04T09:55:50.819Z,2.73
2023-05-04T09:58:17.865Z,3.10
2023-05-04T10:00:45.451Z,3.20
2023-05-04T10:03:12.633Z,2.85
2023-05-04T10:05:39.346Z,2.80
2023-05-04T10:08:08.588Z,3.07
2023-05-04T10:10:37.500Z,3.45
2023-05-04T10:13:04.118Z,3.08
2023-05-04T10:15:31.646Z,2.90
2023-05-04T10:18:13.113Z,2.85
2023-05-04T10:21:02.635Z,3.13
2023-05-04T10:23:48.947Z,3.25
2023-05-04T10:26:36.139Z,3.08
2023-05-04T10:29:12.930Z,3.30
2023-05-04T10:31:40.439Z,2.72
2023-05-04T10:34:08.285Z,2.77
2023-05-04T10:36:38.672Z,2.55
2023-05-04T10:39:18.161Z,3.00
2023-05-04T10:41:59.734Z,2.60
2023-05-04T10:44:27.497Z,2.40
2023-05-04T10:46:59.660Z,2.30
2023-05-04T10:49:26.652Z,2.60
2023-05-04T10:52:08.605Z,2.40
2023-05-04T10:54:37.040Z,2.50
2023-05-04T10:57:05.086Z,2.10
2023-05-04T10:59:32.001Z,2.40
2023-05-04T11:01:58.820Z,1.92
2023-05-04T11:04:25.795Z,2.30
2023-05-04T11:07:00.065Z,2.03
2023-05-04T11:09:27.969Z,2.38
2023-05-04T11:11:56.039Z,2.13
2023-05-04T11:14:29.230Z,2.30
2023-05-04T11:17:19.659Z,2.15
2023-05-04T11:19:52.740Z,2.25
2023-05-04T11:22:20.178Z,2.22
2023-05-04T11:24:47.382Z,2.40
2023-05-04T11:27:23.218Z,1.98
2023-05-04T11:29:56.867Z,2.10
2023-05-04T11:32:33.133Z,1.70
2023-05-04T11:34:59.769Z,2.03
2023-05-04T11:37:28.008Z,2.20
2023-05-04T11:39:54.773Z,1.98
2023-05-04T11:42:22.938Z,2.00
2023-05-04T11:44:50.896Z,2.00
2023-05-04T11:47:17.716Z,2.00
2023-05-04T11:49:45.619Z,2.00
2023-05-04T11:52:12.393Z,1.75
2023-05-04T11:54:38.966Z,2.00
2023-05-04T11:57:05.508Z,1.98
2023-05-04T11:59:33.456Z,2.40
2023-05-04T12:02:00.140Z,1.90
2023-05-04T12:04:31.372Z,2.17
2023-05-04T12:06:59.615Z,2.22
2023-05-04T12:09:28.175Z,1.67
2023-05-04T12:11:55.077Z,1.90
2023-05-04T12:14:21.888Z,2.00
2023-05-04T12:16:55.561Z,1.75
2023-05-04T12:19:22.463Z,2.10
2023-05-04T12:21:50.198Z,1.70
2023-05-04T12:24:16.747Z,1.75
2023-05-04T12:26:43.579Z,2.20
2023-05-04T12:29:10.304Z,1.70
2023-05-04T12:31:36.903Z,2.13
2023-05-04T12:34:05.060Z,2.13
2023-05-04T12:36:31.715Z,1.92
2023-05-04T12:38:58.658Z,1.93
2023-05-04T12:41:25.214Z,1.65
2023-05-04T12:43:51.961Z,2.00
2023-05-04T12:46:18.547Z,1.88
2023-05-04T12:48:45.331Z,2.05
2023-05-04T12:51:13.457Z,1.90
2023-05-04T12:53:39.989Z,1.98
2023-05-04T12:56:06.736Z,1.80
2023-05-04T12:58:33.379Z,1.88
2023-05-04T13:01:00.142Z,1.70
2023-05-04T13:03:26.987Z,1.90
2023-05-04T13:05:53.894Z,1.88
2023-05-04T13:08:21.768Z,2.20
2023-05-04T13:10:48.332Z,1.80
2023-05-04T13:13:15.086Z,1.77
2023-05-04T13:15:42.172Z,2.00
2023-05-04T13:18:08.855Z,1.95
2023-05-04T13:20:35.415Z,1.90
2023-05-04T13:23:01.957Z,1.77
2023-05-04T13:25:29.972Z,1.92
2023-05-04T13:27:56.775Z,1.70
2023-05-04T13:30:23.546Z,2.10
2023-05-04T13:32:50.392Z,1.55
2023-05-04T13:35:16.955Z,1.48
2023-05-04T13:37:43.643Z,1.48
2023-05-04T13:40:11.612Z,1.77
2023-05-04T13:42:39.538Z,1.83
2023-05-04T13:45:07.896Z,1.60
2023-05-04T13:47:34.943Z,1.70
2023-05-04T13:50:01.751Z,1.67
2023-05-04T13:52:28.291Z,1.70
2023-05-04T13:54:54.861Z,1.83
2023-05-04T13:57:21.414Z,1.60
2023-05-04T14:00:05.181Z,1.77
2023-05-04T14:02:33.633Z,1.60
2023-05-04T14:05:02.864Z,1.70
2023-05-04T14:07:29.651Z,1.65
2023-05-04T14:09:56.373Z,1.55
2023-05-04T14:12:22.963Z,1.88
2023-05-04T14:14:51.131Z,1.40
2023-05-04T14:17:17.719Z,1.93
2023-05-04T14:19:44.591Z,1.67
2023-05-04T14:22:11.192Z,1.80
2023-05-04T14:24:37.764Z,1.85
2023-05-04T14:27:04.604Z,2.05
2023-05-04T14:29:31.389Z,1.87
2023-05-04T14:31:59.496Z,1.92
2023-05-04T14:34:27.354Z,1.63
2023-05-04T14:36:53.986Z,1.70
2023-05-04T14:39:20.570Z,1.65
2023-05-04T14:41:47.269Z,1.80
2023-05-04T14:44:13.680Z,1.88
2023-05-04T14:46:41.934Z,1.80
2023-05-04T14:49:12.490Z,1.90
2023-05-04T14:51:42.839Z,1.95
2023-05-04T14:54:09.456Z,1.83
2023-05-04T14:56:36.017Z,1.80
2023-05-04T14:59:02.586Z,1.90
2023-05-04T15:01:29.259Z,2.10
2023-05-04T15:03:56.111Z,2.00
2023-05-04T15:06:24.296Z,1.93
2023-05-04T15:08:50.918Z,1.70
2023-05-04T15:11:19.307Z,1.60
2023-05-04T15:13:46.295Z,1.92
2023-05-04T15:16:15.996Z,1.90
2023-05-04T15:18:42.562Z,1.87
2023-05-04T15:21:10.719Z,1.83
2023-05-04T15:23:38.832Z,2.08
2023-05-04T15:26:05.418Z,2.08
2023-05-04T15:28:32.065Z,1.92
2023-05-04T15:30:59.073Z,2.37
2023-05-04T15:33:25.599Z,1.70
2023-05-04T15:35:52.217Z,1.77
2023-05-04T15:38:18.782Z,2.30
2023-05-04T15:40:46.736Z,1.80
2023-05-04T15:43:13.472Z,2.00
2023-05-04T15:45:40.213Z,1.90
2023-05-04T15:48:06.772Z,1.52
2023-05-04T15:50:33.407Z,1.70
2023-05-04T15:53:00.057Z,1.70
2023-05-04T15:55:26.773Z,1.97
2023-05-04T15:57:54.999Z,1.88
2023-05-04T16:00:22.036Z,1.88
2023-05-04T16:02:48.710Z,1.77
2023-05-04T16:05:15.458Z,1.83
2023-05-04T16:07:42.034Z,1.63
2023-05-04T16:10:09.983Z,2.20
2023-05-04T16:12:38.606Z,1.50
2023-05-04T16:15:07.584Z,1.92
2023-05-04T16:17:34.266Z,1.65
2023-05-04T16:20:01.093Z,1.87
2023-05-04T16:22:27.940Z,1.90
2023-05-04T16:24:54.658Z,1.80
2023-05-04T16:27:21.263Z,2.17
2023-05-04T16:29:48.105Z,1.90
2023-05-04T16:32:15.990Z,2.10
2023-05-04T16:34:42.610Z,2.20
2023-05-04T16:37:10.998Z,1.83
2023-05-04T16:39:38.179Z,2.00
2023-05-04T16:42:05.118Z,2.17
2023-05-04T16:44:32.094Z,2.07
2023-05-04T16:46:58.780Z,1.83
2023-05-04T16:49:26.850Z,1.95
2023-05-04T16:51:53.564Z,2.00
2023-05-04T16:54:20.069Z,1.90
2023-05-04T16:56:46.841Z,2.10
2023-05-04T16:59:13.493Z,1.90
2023-05-04T17:01:40.122Z,1.67
2023-05-04T17:04:06.917Z,2.30
2023-05-04T17:06:34.974Z,1.90
2023-05-04T17:09:02.175Z,1.90
2023-05-04T17:11:28.825Z,2.10
2023-05-04T17:13:55.393Z,2.15
2023-05-04T17:16:21.970Z,2.30
2023-05-04T17:18:48.516Z,2.03
2023-05-04T17:21:15.130Z,2.40
2023-05-04T17:23:43.394Z,2.22
2023-05-04T17:26:12.640Z,2.20
2023-05-04T17:28:39.161Z,2.08
2023-05-04T17:31:06.176Z,2.20
2023-05-04T17:33:35.358Z,2.13
2023-05-04T17:36:01.918Z,1.98
2023-05-04T17:38:28.523Z,2.17
2023-05-04T17:40:56.501Z,2.15
2023-05-04T17:43:23.131Z,2.20
2023-05-04T17:45:49.996Z,2.33
2023-05-04T17:48:16.556Z,2.30
2023-05-04T17:50:43.332Z,2.38
2023-05-04T17:53:09.902Z,1.77
2023-05-04T17:55:36.483Z,2.10
2023-05-04T17:58:04.417Z,2.57
2023-05-04T18:00:31.146Z,2.42
2023-05-04T18:02:57.777Z,2.17
2023-05-04T18:05:24.736Z,2.38
2023-05-04T18:07:51.498Z,2.33
2023-05-04T18:10:18.384Z,2.37
2023-05-04T18:12:44.999Z,2.15
2023-05-04T18:15:13.051Z,2.40
2023-05-04T18:17:39.619Z,2.40
2023-05-04T18:20:07.617Z,2.22
2023-05-04T18:22:34.484Z,2.20
2023-05-04T18:25:01.435Z,2.28
2023-05-04T18:27:30.840Z,2.42
2023-05-04T18:30:00.454Z,2.47
2023-05-04T18:32:28.449Z,2.55
2023-05-04T18:34:55.324Z,2.67
2023-05-04T18:37:21.913Z,2.15
2023-05-04T18:39:48.563Z,2.28
2023-05-04T18:42:15.434Z,2.30
2023-05-04T18:44:42.285Z,2.30
2023-05-04T18:47:08.981Z,2.43
2023-05-04T18:49:36.880Z,2.30
2023-05-04T18:52:03.992Z,2.70
2023-05-04T18:54:30.710Z,2.72
2023-05-04T18:56:57.305Z,2.30
2023-05-04T18:59:25.836Z,2.50
2023-05-04T19:01:54.315Z,2.30
2023-05-04T19:04:21.162Z,2.45
2023-05-04T19:06:49.105Z,2.40
2023-05-04T19:09:15.648Z,2.42
2023-05-04T19:11:42.383Z,2.17
2023-05-04T19:14:41.923Z,2.47
2023-05-04T19:17:09.912Z,2.08
2023-05-04T19:19:36.520Z,2.42
2023-05-04T19:22:04.658Z,2.60
2023-05-04T19:24:31.311Z,2.30
2023-05-04T19:26:57.880Z,2.45
2023-05-04T19:29:24.727Z,2.00
2023-05-04T19:31:51.419Z,2.38
2023-05-04T19:34:18.340Z,2.50
2023-05-04T19:36:44.894Z,2.50
2023-05-04T19:39:13.269Z,2.67
2023-05-04T19:41:39.856Z,2.45
2023-05-04T19:44:06.440Z,2.60
2023-05-04T19:46:33.106Z,2.90
2023-05-04T19:48:59.794Z,2.70
2023-05-04T19:51:26.326Z,3.50
2023-05-04T19:53:52.851Z,3.33
2023-05-04T19:56:21.021Z,3.22
2023-05-04T19:58:47.677Z,2.80
2023-05-04T20:01:14.344Z,2.80
2023-05-04T20:03:40.909Z,2.70
2023-05-04T20:06:07.575Z,2.60
2023-05-04T20:08:34.144Z,2.70
2023-05-04T20:11:00.719Z,2.63
2023-05-04T20:13:28.705Z,2.77
2023-05-04T20:15:55.709Z,2.72
2023-05-04T20:18:22.918Z,2.42
2023-05-04T20:20:49.655Z,2.92
2023-05-04T20:23:16.181Z,2.65
2023-05-04T20:25:42.729Z,2.33
2023-05-04T20:28:09.421Z,2.45
2023-05-04T20:30:37.332Z,2.88
2023-05-04T20:33:03.917Z,2.40
2023-05-04T20:35:30.474Z,2.17
2023-05-04T20:37:57.034Z,2.67
2023-05-04T20:40:24.520Z,2.15
2023-05-04T20:42:51.098Z,2.50
2023-05-04T20:45:17.816Z,2.90
2023-05-04T20:47:45.896Z,2.60
2023-05-04T20:50:12.540Z,2.90
2023-05-04T20:52:39.174Z,2.35
2023-05-04T20:55:06.368Z,2.50
2023-05-04T20:57:32.989Z,2.72
2023-05-04T20:59:59.811Z,2.22
2023-05-04T21:02:26.430Z,2.63
2023-05-04T21:04:54.487Z,2.53
2023-05-04T21:07:21.050Z,2.65
2023-05-04T21:09:47.697Z,2.50
2023-05-04T21:12:14.258Z,2.45
2023-05-04T21:14:40.797Z,2.50
2023-05-04T21:17:07.791Z,2.50
2023-05-04T21:19:34.334Z,2.55
2023-05-04T21:22:02.304Z,2.47
2023-05-04T21:24:28.907Z,2.78
2023-05-04T21:26:55.445Z,2.50
2023-05-04T21:29:22.109Z,2.60
2023-05-04T21:31:48.743Z,2.65
2023-05-04T21:34:15.429Z,2.47
2023-05-04T21:36:41.976Z,2.80
2023-05-04T21:39:09.955Z,2.57
2023-05-04T21:41:37.607Z,2.33
2023-05-04T21:44:04.684Z,2.47
2023-05-04T21:46:31.286Z,2.63
2023-05-04T21:48:58.004Z,2.30
2023-05-04T21:51:24.824Z,2.70
2023-05-04T21:53:51.842Z,2.42
2023-05-04T21:56:19.754Z,2.35
2023-05-04T21:58:46.326Z,2.38
2023-05-04T22:01:15.742Z,2.25
2023-05-04T22:03:42.424Z,2.50
2023-05-04T22:06:09.326Z,2.33
2023-05-04T22:08:35.988Z,2.40
2023-05-04T22:11:02.867Z,2.30
2023-05-04T22:13:31.117Z,2.70
2023-05-04T22:15:57.702Z,2.50
2023-05-04T22:18:24.308Z,2.80
2023-05-04T22:20:50.862Z,2.50
2023-05-04T22:23:17.596Z,2.60
2023-05-04T22:25:44.327Z,2.38
2023-05-04T22:28:10.862Z,3.43
2023-05-04T22:30:38.887Z,2.80
2023-05-04T22:33:33.094Z,2.95
2023-05-04T22:35:59.647Z,2.63
2023-05-04T22:38:26.288Z,2.40
2023-05-04T22:40:52.887Z,2.60
2023-05-04T22:43:19.402Z,2.70
2023-05-04T22:45:47.433Z,2.47
2023-05-04T22:48:14.249Z,2.55
2023-05-04T22:50:41.247Z,2.50
2023-05-04T22:53:08.022Z,2.70
2023-05-04T22:55:34.671Z,2.33
2023-05-04T22:58:01.368Z,2.65
2023-05-04T23:00:28.368Z,2.50
2023-05-04T23:02:56.495Z,2.60
2023-05-04T23:05:23.127Z,2.20
2023-05-04T23:07:49.975Z,2.10
2023-05-04T23:10:16.545Z,2.42
2023-05-04T23:12:43.111Z,2.85
2023-05-04T23:15:09.997Z,2.72
2023-05-04T23:17:36.529Z,2.20
2023-05-04T23:20:06.740Z,2.22
2023-05-04T23:22:33.591Z,2.22
2023-05-04T23:25:00.600Z,2.30
2023-05-04T23:27:27.189Z,2.65
2023-05-04T23:29:53.972Z,2.33
2023-05-04T23:32:20.517Z,2.47
2023-05-04T23:34:47.447Z,2.30
2023-05-04T23:37:15.404Z,2.63
2023-05-04T23:39:42.239Z,2.47
2023-05-04T23:42:08.772Z,2.50
2023-05-04T23:44:36.393Z,1.98
2023-05-04T23:47:02.928Z,2.60
2023-05-04T23:49:29.464Z,2.50
2023-05-04T23:51:55.990Z,2.55
2023-05-04T23:54:24.070Z,2.50
2023-05-04T23:56:50.655Z,2.30
2023-05-04T23:59:17.264Z,2.50
